Time;durP1;ratioP1;P1;durP2;ratioP2;P2;SDS_P1;SDS_P2;PMS_P1;PMS_P2;Temp;Humidity;BMP_temperature;BMP_pressure;BME280_temperature;BME280_humidity;BME280_pressure;Samples;Min_cycle;Max_cycle;Signal;HPM_P1;HPM_P2
2021/09/01 00:02:12;;;;;;;;;;;;;;;19.00;56.40;101935.09;4971998;28;97757;-74
2021/09/01 00:04:38;;;;;;;;;;;;;;;19.18;55.94;101947.50;4971682;28;99287;-74
2021/09/01 00:07:04;;;;;;;;;;;;;;;19.03;56.11;101937.63;4974163;28;97726;-75
2021/09/01 00:09:31;;;;;;;;;;;;;;;18.96;56.52;101939.75;4973556;28;97084;-75
2021/09/01 00:11:57;;;;;;;;;;;;;;;18.80;56.96;101935.25;4972919;28;99438;-75
2021/09/01 00:14:26;;;;;;;;;;;;;;;18.43;58.11;101937.06;4974033;28;99438;-74
2021/09/01 00:16:52;;;;;;;;;;;;;;;18.81;57.18;101940.53;4966619;28;96728;-74
2021/09/01 00:19:19;;;;;;;;;;;;;;;18.70;57.52;101943.75;4968808;28;97798;-75
2021/09/01 00:21:45;;;;;;;;;;;;;;;18.86;56.87;101942.97;4975711;28;98913;-74
2021/09/01 00:24:11;;;;;;;;;;;;;;;18.91;57.09;101943.59;4975143;28;98975;-74
2021/09/01 00:26:37;;;;;;;;;;;;;;;18.99;56.83;101941.38;4973556;28;96822;-74
2021/09/01 00:29:04;;;;;;;;;;;;;;;19.10;56.48;101950.59;4977928;28;96900;-74
2021/09/01 00:31:32;;;;;;;;;;;;;;;19.22;56.39;101951.78;4975038;28;99427;-74
2021/09/01 00:33:58;;;;;;;;;;;;;;;19.30;55.98;101956.72;4967483;28;99127;-74
2021/09/01 00:36:24;;;;;;;;;;;;;;;19.07;56.54;101952.56;4972705;28;97243;-73
2021/09/01 00:38:50;;;;;;;;;;;;;;;19.27;55.98;101947.03;4975817;28;96780;-74
2021/09/01 00:41:17;;;;;;;;;;;;;;;19.19;56.38;101951.94;4970311;28;98943;-74
2021/09/01 00:43:44;;;;;;;;;;;;;;;19.11;56.79;101948.78;4974818;28;97853;-73
2021/09/01 00:46:10;;;;;;;;;;;;;;;19.18;56.73;101947.50;4974508;28;97541;-74
2021/09/01 00:48:38;;;;;;;;;;;;;;;18.75;57.90;101956.03;4974943;28;96846;-75
2021/09/01 00:51:05;;;;;;;;;;;;;;;18.94;57.50;101960.38;4972538;28;99211;-73
2021/09/01 00:53:33;;;;;;;;;;;;;;;18.84;57.74;101953.75;4975781;28;98876;-74
2021/09/01 00:55:59;;;;;;;;;;;;;;;18.73;58.30;101955.22;4962508;28;96903;-74
2021/09/01 00:58:25;;;;;;;;;;;;;;;18.75;58.24;101943.53;4973145;28;96830;-74
2021/09/01 01:01:14;;;;;;;;;;;;;;;18.67;58.52;101949.25;4973852;28;99044;-75
2021/09/01 01:03:42;;;;;;;;;;;;;;;18.94;57.75;101949.66;4969606;28;99077;-74
2021/09/01 01:06:08;;;;;;;;;;;;;;;18.69;58.50;101949.19;4972500;28;98033;-73
2021/09/01 01:08:35;;;;;;;;;;;;;;;18.89;58.02;101950.84;4973754;28;97218;-73
2021/09/01 01:11:01;;;;;;;;;;;;;;;18.88;57.96;101954.47;4971521;28;98854;-73
2021/09/01 01:13:27;;;;;;;;;;;;;;;18.65;58.90;101958.28;4970122;28;99135;-74
2021/09/01 01:15:54;;;;;;;;;;;;;;;18.14;60.64;101956.34;4972878;28;97394;-74
2021/09/01 01:18:20;;;;;;;;;;;;;;;18.60;59.28;101952.31;4975788;28;96945;-74
2021/09/01 01:20:49;;;;;;;;;;;;;;;18.32;60.15;101955.44;4972574;28;99294;-75
2021/09/01 01:23:15;;;;;;;;;;;;;;;18.35;60.21;101949.94;4976161;28;99487;-74
2021/09/01 01:25:42;;;;;;;;;;;;;;;18.15;60.86;101948.25;4971347;28;97152;-74
2021/09/01 01:28:10;;;;;;;;;;;;;;;18.60;59.71;101953.19;4974612;28;97310;-75
2021/09/01 01:30:37;;;;;;;;;;;;;;;18.53;59.74;101945.50;4974512;28;99393;-74
2021/09/01 01:33:03;;;;;;;;;;;;;;;18.63;59.27;101955.72;4972274;28;99199;-74
2021/09/01 01:35:30;;;;;;;;;;;;;;;18.39;60.24;101947.97;4958958;28;97382;-73
2021/09/01 01:37:57;;;;;;;;;;;;;;;18.60;59.66;101957.66;4972469;28;96935;-73
2021/09/01 01:40:24;;;;;;;;;;;;;;;18.30;60.43;101955.53;4973543;28;98877;-74
2021/09/01 01:42:54;;;;;;;;;;;;;;;18.61;59.92;101954.06;4972310;28;98682;-73
2021/09/01 01:45:21;;;;;;;;;;;;;;;18.69;59.53;101957.22;4966324;28;97166;-73
2021/09/01 01:47:47;;;;;;;;;;;;;;;18.79;59.03;101957.59;4974389;28;96843;-73
2021/09/01 01:50:13;;;;;;;;;;;;;;;18.52;60.12;101952.66;4971654;28;99067;-73
2021/09/01 01:52:40;;;;;;;;;;;;;;;18.63;59.56;101955.72;4971751;28;98969;-74
2021/09/01 01:55:07;;;;;;;;;;;;;;;18.65;59.84;101955.63;4973146;28;98256;-73
2021/09/01 01:57:33;;;;;;;;;;;;;;;18.91;58.74;101951.63;4973265;28;96993;-73
2021/09/01 02:00:01;;;;;;;;;;;;;;;19.04;58.42;101955.41;4984399;28;99209;-72
2021/09/01 02:02:30;;;;;;;;;;;;;;;18.73;58.99;101964.13;4979896;28;98787;-74
2021/09/01 02:04:57;;;;;;;;;;;;;;;18.96;58.49;101953.16;4973029;28;97266;-73
2021/09/01 02:07:23;;;;;;;;;;;;;;;18.80;59.00;101962.03;4973990;28;98912;-73
2021/09/01 02:09:49;;;;;;;;;;;;;;;18.66;59.39;101950.19;4971433;28;99094;-74
2021/09/01 02:12:15;;;;;;;;;;;;;;;18.76;59.08;101955.97;4972640;28;98821;-73
2021/09/01 02:14:41;;;;;;;;;;;;;;;18.93;58.48;101949.75;4971865;28;96898;-74
2021/09/01 02:17:09;;;;;;;;;;;;;;;18.97;58.25;101954.00;4971483;28;96950;-73
2021/09/01 02:19:35;;;;;;;;;;;;;;;18.81;59.02;101947.69;4973300;28;98899;-73
2021/09/01 02:22:02;;;;;;;;;;;;;;;18.58;60.05;101944.34;4972006;28;99013;-74
2021/09/01 02:24:28;;;;;;;;;;;;;;;18.85;58.92;101935.88;4974869;28;96766;-74
2021/09/01 02:26:54;;;;;;;;;;;;;;;18.53;59.90;101949.03;4973152;28;97739;-73
2021/09/01 02:29:21;;;;;;;;;;;;;;;18.73;59.40;101939.16;4973850;28;98963;-75
2021/09/01 02:31:47;;;;;;;;;;;;;;;18.79;58.66;101950.44;4974709;28;97923;-74
2021/09/01 02:34:15;;;;;;;;;;;;;;;18.78;58.88;101945.16;4984468;28;96668;-74
2021/09/01 02:36:41;;;;;;;;;;;;;;;18.21;60.73;101941.72;4977275;28;98912;-74
2021/09/01 02:39:07;;;;;;;;;;;;;;;18.33;60.34;101939.31;4971859;28;99360;-75
2021/09/01 02:41:34;;;;;;;;;;;;;;;18.44;60.04;101940.63;4973883;28;99216;-75
2021/09/01 02:44:00;;;;;;;;;;;;;;;18.54;59.83;101937.38;4973578;28;96839;-75
2021/09/01 02:46:26;;;;;;;;;;;;;;;18.18;60.59;101923.16;4971636;28;96982;-74
2021/09/01 02:48:52;;;;;;;;;;;;;;;18.10;61.53;101933.34;4973465;28;99236;-74
2021/09/01 02:51:20;;;;;;;;;;;;;;;18.18;60.93;101931.19;4965680;28;99284;-74
2021/09/01 02:53:46;;;;;;;;;;;;;;;18.39;60.44;101932.78;4954731;28;96850;-73
2021/09/01 02:56:12;;;;;;;;;;;;;;;18.62;59.36;101929.03;4968506;28;96893;-72
2021/09/01 02:58:39;;;;;;;;;;;;;;;18.61;59.72;101933.50;4971316;28;99175;-73
2021/09/01 03:01:05;;;;;;;;;;;;;;;18.31;60.34;101924.28;4972291;28;98779;-73
2021/09/01 03:03:31;;;;;;;;;;;;;;;18.50;59.81;101927.78;4972979;28;97056;-73
2021/09/01 03:05:57;;;;;;;;;;;;;;;18.59;59.62;101929.16;4972121;28;97563;-73
2021/09/01 03:08:25;;;;;;;;;;;;;;;18.62;59.68;101937.06;4972907;28;98997;-73
2021/09/01 03:10:51;;;;;;;;;;;;;;;18.51;59.54;101926.81;4970509;28;98896;-73
2021/09/01 03:13:18;;;;;;;;;;;;;;;18.59;59.37;101934.50;4972625;28;96813;-74
2021/09/01 03:15:44;;;;;;;;;;;;;;;18.64;59.38;101941.38;4971607;28;96678;-74
2021/09/01 03:18:10;;;;;;;;;;;;;;;18.81;58.96;101932.50;4968301;28;98953;-73
2021/09/01 03:20:37;;;;;;;;;;;;;;;18.52;59.76;101931.25;4972119;28;99165;-74
2021/09/01 03:23:03;;;;;;;;;;;;;;;18.48;60.23;101939.50;4971720;28;97047;-73
2021/09/01 03:25:31;;;;;;;;;;;;;;;18.59;59.61;101937.19;4970358;28;98077;-74
2021/09/01 03:27:59;;;;;;;;;;;;;;;18.70;59.51;101938.41;4969848;28;99431;-74
2021/09/01 03:30:25;;;;;;;;;;;;;;;18.67;59.20;101946.56;4969255;28;98877;-74
2021/09/01 03:32:52;;;;;;;;;;;;;;;18.54;59.73;101940.06;4971111;28;96871;-75
2021/09/01 03:35:18;;;;;;;;;;;;;;;18.56;59.59;101942.72;4971130;28;96956;-76
2021/09/01 03:37:44;;;;;;;;;;;;;;;18.32;60.20;101940.25;4973209;28;99238;-74
2021/09/01 03:40:11;;;;;;;;;;;;;;;18.53;59.72;101946.38;4971102;28;98117;-73
2021/09/01 03:42:40;;;;;;;;;;;;;;;18.41;59.99;101941.63;4971378;28;96926;-74
2021/09/01 03:45:06;;;;;;;;;;;;;;;18.32;60.24;101950.94;4959119;28;98250;-74
2021/09/01 03:47:33;;;;;;;;;;;;;;;18.39;59.94;101945.31;4971395;28;98220;-73
2021/09/01 03:49:59;;;;;;;;;;;;;;;18.22;60.44;101956.84;4976592;28;100959;-73
2021/09/01 03:52:25;;;;;;;;;;;;;;;17.90;61.35;101959.25;4960521;28;96832;-73
2021/09/01 03:54:52;;;;;;;;;;;;;;;18.30;60.36;101952.00;4969597;28;97690;-74
2021/09/01 03:57:18;;;;;;;;;;;;;;;18.39;59.89;101948.84;4974590;28;98101;-73
2021/09/01 03:59:46;;;;;;;;;;;;;;;17.79;61.93;101950.81;4976025;28;98824;-74
2021/09/01 04:02:12;;;;;;;;;;;;;;;18.14;60.98;101946.50;4975257;28;97605;-74
2021/09/01 04:04:38;;;;;;;;;;;;;;;17.92;61.20;101943.09;4974136;28;97822;-74
2021/09/01 04:07:05;;;;;;;;;;;;;;;18.15;61.02;101958.94;4974462;28;99275;-73
2021/09/01 04:09:32;;;;;;;;;;;;;;;18.30;60.43;101955.53;4975288;28;98991;-73
2021/09/01 04:11:58;;;;;;;;;;;;;;;18.31;60.14;101953.72;4972954;28;97705;-74
2021/09/01 04:14:24;;;;;;;;;;;;;;;18.48;59.61;101958.25;4976277;28;96795;-74
2021/09/01 04:16:52;;;;;;;;;;;;;;;17.74;61.88;101955.53;4972506;28;99327;-74
2021/09/01 04:19:18;;;;;;;;;;;;;;;17.67;62.42;101964.75;4978683;28;99263;-72
2021/09/01 04:21:46;;;;;;;;;;;;;;;17.84;61.89;101962.19;4974053;28;97819;-73
2021/09/01 04:24:13;;;;;;;;;;;;;;;18.07;60.95;101970.94;4973088;28;96999;-73
2021/09/01 04:26:39;;;;;;;;;;;;;;;18.21;60.25;101972.03;4967395;28;98891;-73
2021/09/01 04:29:06;;;;;;;;;;;;;;;18.26;60.26;101974.47;4971067;28;97809;-74
2021/09/01 04:31:38;;;;;;;;;;;;;;;18.17;60.33;101972.25;4975461;28;98539;-77
2021/09/01 04:34:06;;;;;;;;;;;;;;;17.78;61.74;101977.66;4974953;28;97326;-73
2021/09/01 04:36:32;;;;;;;;;;;;;;;18.00;61.51;101974.84;4972768;28;98912;-73
2021/09/01 04:38:58;;;;;;;;;;;;;;;18.05;60.96;101983.53;4972248;28;98763;-72
2021/09/01 04:41:24;;;;;;;;;;;;;;;17.94;61.17;101989.38;4973109;28;96895;-74
2021/09/01 04:43:51;;;;;;;;;;;;;;;18.08;61.10;101988.72;4974501;28;96786;-73
2021/09/01 04:46:17;;;;;;;;;;;;;;;17.88;61.29;101987.84;4973581;28;99062;-73
2021/09/01 04:48:43;;;;;;;;;;;;;;;18.03;60.84;101996.09;4974839;28;99174;-74
2021/09/01 04:51:11;;;;;;;;;;;;;;;18.28;60.18;101980.63;4972898;28;96853;-73
2021/09/01 04:53:37;;;;;;;;;;;;;;;18.03;60.57;101980.94;4974837;28;97033;-74
2021/09/01 04:56:04;;;;;;;;;;;;;;;17.84;60.88;101988.06;4973755;28;99124;-74
2021/09/01 04:58:30;;;;;;;;;;;;;;;18.08;60.39;101984.25;4972172;28;98712;-74
2021/09/01 05:00:56;;;;;;;;;;;;;;;18.01;60.56;101989.94;4974873;28;96973;-74
2021/09/01 05:03:22;;;;;;;;;;;;;;;18.20;59.91;101993.47;4967144;28;98703;-74
2021/09/01 05:05:49;;;;;;;;;;;;;;;18.43;59.26;101995.06;4973815;28;99392;-74
2021/09/01 05:08:16;;;;;;;;;;;;;;;18.13;60.16;101992.91;4973130;28;98986;-75
2021/09/01 05:10:43;;;;;;;;;;;;;;;17.94;60.54;101992.03;4972915;28;96832;-73
2021/09/01 05:13:09;;;;;;;;;;;;;;;18.29;59.94;102001.97;4971424;28;97239;-74
2021/09/01 05:15:35;;;;;;;;;;;;;;;18.50;59.02;102005.41;4974129;28;98839;-74
2021/09/01 05:18:02;;;;;;;;;;;;;;;18.79;57.94;102003.13;4972755;28;98802;-72
2021/09/01 05:20:28;;;;;;;;;;;;;;;18.64;58.30;102000.25;4973257;28;98428;-73
2021/09/01 05:22:59;;;;;;;;;;;;;;;18.69;58.10;102003.59;4972830;28;96974;-73
2021/09/01 05:25:29;;;;;;;;;;;;;;;18.48;58.57;102009.97;4965040;28;97893;-73
2021/09/01 05:27:57;;;;;;;;;;;;;;;18.68;58.30;102001.84;4966487;28;98855;-73
2021/09/01 05:30:23;;;;;;;;;;;;;;;18.85;57.52;102000.13;4974897;28;97409;-74
2021/09/01 05:32:50;;;;;;;;;;;;;;;18.40;59.18;102012.13;4976560;28;97384;-74
2021/09/01 05:35:17;;;;;;;;;;;;;;;18.78;57.82;102010.28;4970442;28;99125;-73
2021/09/01 05:37:47;;;;;;;;;;;;;;;18.67;57.87;102016.19;4988481;28;98145;-74
2021/09/01 05:40:14;;;;;;;;;;;;;;;18.42;58.56;102014.75;4991842;28;96718;-73
2021/09/01 05:42:42;;;;;;;;;;;;;;;18.81;57.44;102012.81;4983040;28;96861;-74
2021/09/01 05:45:09;;;;;;;;;;;;;;;18.53;58.53;102013.28;4976496;28;98166;-73
2021/09/01 05:47:35;;;;;;;;;;;;;;;18.48;58.32;102017.13;4974246;28;100214;-73
2021/09/01 05:50:01;;;;;;;;;;;;;;;18.10;59.73;102017.16;4973154;28;97281;-73
2021/09/01 05:52:28;;;;;;;;;;;;;;;18.95;57.17;102021.03;4978443;28;97141;-73
2021/09/01 05:54:55;;;;;;;;;;;;;;;19.05;56.98;102018.75;4976756;28;98964;-73
2021/09/01 05:57:33;;;;;;;;;;;;;;;19.17;56.48;102026.16;4978291;28;98276;-73
2021/09/01 06:00:05;;;;;;;;;;;;;;;18.96;56.86;102019.22;4971924;28;96905;-73
2021/09/01 06:02:38;;;;;;;;;;;;;;;19.36;55.92;102031.47;4974661;28;96816;-72
2021/09/01 06:05:05;;;;;;;;;;;;;;;19.68;55.03;102027.13;4976037;28;98943;-73
2021/09/01 06:07:32;;;;;;;;;;;;;;;19.62;55.03;102027.44;4973890;28;99159;-73
2021/09/01 06:09:59;;;;;;;;;;;;;;;19.35;55.69;102030.59;4977822;28;98112;-72
2021/09/01 06:12:27;;;;;;;;;;;;;;;19.46;55.22;102032.75;4977819;28;96829;-73
2021/09/01 06:14:54;;;;;;;;;;;;;;;19.51;55.16;102025.31;4979715;28;99001;-72
2021/09/01 06:17:21;;;;;;;;;;;;;;;19.65;54.72;102028.13;4975315;28;98047;-73
2021/09/01 06:19:48;;;;;;;;;;;;;;;20.13;53.46;102019.25;4977919;28;97995;-72
2021/09/01 06:22:15;;;;;;;;;;;;;;;19.89;54.00;102031.31;4978291;28;96729;-73
2021/09/01 06:24:42;;;;;;;;;;;;;;;19.69;54.50;102028.88;4973424;28;99427;-72
2021/09/01 06:27:08;;;;;;;;;;;;;;;20.17;53.58;102036.91;4972741;28;99790;-73
2021/09/01 06:29:35;;;;;;;;;;;;;;;20.02;53.57;102048.47;4970221;28;99015;-74
2021/09/01 06:32:01;;;;;;;;;;;;;;;19.79;54.17;102048.88;4973152;28;98250;-73
2021/09/01 06:34:28;;;;;;;;;;;;;;;19.98;54.18;102051.41;4969207;28;98919;-72
2021/09/01 06:36:55;;;;;;;;;;;;;;;20.30;52.93;102042.47;4971531;28;99392;-74
2021/09/01 06:39:21;;;;;;;;;;;;;;;20.30;53.13;102037.97;4971484;28;96861;-73
2021/09/01 06:41:48;;;;;;;;;;;;;;;20.18;53.39;102037.78;4970733;28;98579;-73
2021/09/01 06:44:14;;;;;;;;;;;;;;;20.46;52.55;102042.50;4962486;28;98924;-74
2021/09/01 06:46:40;;;;;;;;;;;;;;;20.67;52.45;102035.94;4970449;28;99083;-73
2021/09/01 06:49:07;;;;;;;;;;;;;;;20.72;52.29;102043.72;4968857;28;97970;-73
2021/09/01 06:51:34;;;;;;;;;;;;;;;20.89;51.70;102044.47;4970952;28;97112;-73
2021/09/01 06:54:00;;;;;;;;;;;;;;;20.89;51.72;102040.91;4971057;28;98790;-74
2021/09/01 06:56:27;;;;;;;;;;;;;;;20.67;52.04;102047.53;4964844;28;97570;-73
2021/09/01 06:58:53;;;;;;;;;;;;;;;20.15;54.01;102052.22;4969271;28;99008;-73
2021/09/01 07:01:19;;;;;;;;;;;;;;;20.42;53.28;102051.69;4971263;28;96900;-72
2021/09/01 07:03:45;;;;;;;;;;;;;;;21.08;51.68;102047.81;4969700;28;99207;-73
2021/09/01 07:06:14;;;;;;;;;;;;;;;21.04;52.02;102046.28;4968580;28;99185;-73
2021/09/01 07:08:41;;;;;;;;;;;;;;;21.16;51.45;102057.28;4967273;28;98366;-73
2021/09/01 07:11:08;;;;;;;;;;;;;;;20.75;52.71;102056.94;4960073;28;97360;-73
2021/09/01 07:13:36;;;;;;;;;;;;;;;21.25;51.41;102059.44;4970628;28;98969;-74
2021/09/01 07:16:03;;;;;;;;;;;;;;;20.94;52.19;102066.56;4962701;28;98790;-72
2021/09/01 07:18:29;;;;;;;;;;;;;;;21.54;50.85;102063.91;4970301;28;97249;-73
2021/09/01 07:20:56;;;;;;;;;;;;;;;21.98;49.82;102068.44;4971397;28;96743;-73
2021/09/01 07:23:22;;;;;;;;;;;;;;;21.93;49.30;102070.50;4971368;28;99059;-73
2021/09/01 07:25:49;;;;;;;;;;;;;;;22.53;48.24;102069.34;4970007;28;99170;-74
2021/09/01 07:28:16;;;;;;;;;;;;;;;22.89;47.37;102078.72;4967232;28;96968;-74
2021/09/01 07:30:42;;;;;;;;;;;;;;;22.97;46.98;102079.06;4977974;28;97014;-72
2021/09/01 07:33:09;;;;;;;;;;;;;;;22.62;48.00;102078.66;4963724;28;98888;-71
2021/09/01 07:35:35;;;;;;;;;;;;;;;22.57;48.16;102087.03;4971063;28;98970;-72
2021/09/01 07:38:01;;;;;;;;;;;;;;;22.25;49.21;102086.38;4965115;28;97272;-73
2021/09/01 07:40:27;;;;;;;;;;;;;;;21.73;50.72;102090.53;4966141;28;96932;-73
2021/09/01 07:42:56;;;;;;;;;;;;;;;21.72;50.84;102089.72;4968187;28;98940;-73
2021/09/01 07:45:22;;;;;;;;;;;;;;;22.76;48.55;102092.13;4968297;28;98215;-72
2021/09/01 07:47:49;;;;;;;;;;;;;;;22.86;48.35;102090.53;4965483;28;98186;-73
2021/09/01 07:50:16;;;;;;;;;;;;;;;21.76;51.01;102095.75;4965757;28;97769;-72
2021/09/01 07:52:43;;;;;;;;;;;;;;;21.72;51.28;102102.28;4963713;28;98178;-73
2021/09/01 07:55:10;;;;;;;;;;;;;;;22.55;49.36;102106.94;4971943;28;98960;-73
2021/09/01 07:57:36;;;;;;;;;;;;;;;22.70;48.81;102102.41;4968054;28;97301;-73
2021/09/01 08:00:04;;;;;;;;;;;;;;;22.77;48.77;102109.16;4961814;28;97462;-72
2021/09/01 08:02:30;;;;;;;;;;;;;;;23.55;47.12;102113.78;4963305;28;99032;-72
2021/09/01 08:04:57;;;;;;;;;;;;;;;24.06;45.62;102114.69;4965643;28;100226;-72
2021/09/01 08:07:23;;;;;;;;;;;;;;;23.48;46.62;102119.72;4966260;28;97899;-73
2021/09/01 08:09:49;;;;;;;;;;;;;;;23.30;47.62;102119.94;4968293;28;98492;-73
2021/09/01 08:12:16;;;;;;;;;;;;;;;22.07;50.83;102132.44;4972638;28;99574;-73
2021/09/01 08:14:42;;;;;;;;;;;;;;;23.07;48.66;102131.41;4973779;28;98800;-73
2021/09/01 08:17:10;;;;;;;;;;;;;;;23.28;47.98;102138.06;4968648;28;97040;-73
2021/09/01 08:19:37;;;;;;;;;;;;;;;22.39;50.30;102144.75;4965468;28;96873;-73
2021/09/01 08:22:03;;;;;;;;;;;;;;;22.02;51.50;102148.00;4969941;28;97749;-73
2021/09/01 08:24:29;;;;;;;;;;;;;;;22.37;51.05;102148.53;4969175;28;101159;-73
2021/09/01 08:26:56;;;;;;;;;;;;;;;22.37;50.72;102153.91;4972772;28;97056;-73
2021/09/01 08:29:22;;;;;;;;;;;;;;;22.12;51.27;102146.50;4969100;28;96958;-73
2021/09/01 08:31:48;;;;;;;;;;;;;;;22.42;50.75;102149.09;4977014;28;99169;-74
2021/09/01 08:34:16;;;;;;;;;;;;;;;22.71;50.18;102153.47;4971300;28;98170;-73
2021/09/01 08:36:42;;;;;;;;;;;;;;;22.58;50.17;102163.31;4977829;28;97361;-74
2021/09/01 08:39:08;;;;;;;;;;;;;;;21.75;52.43;102154.06;4976063;28;97402;-74
2021/09/01 08:41:37;;;;;;;;;;;;;;;21.80;52.70;102154.66;4973594;28;99207;-74
2021/09/01 08:44:03;;;;;;;;;;;;;;;21.67;53.67;102153.66;4967666;28;98828;-75
2021/09/01 08:46:30;;;;;;;;;;;;;;;21.62;53.91;102162.97;4971843;28;96995;-73
2021/09/01 08:48:56;;;;;;;;;;;;;;;21.85;53.03;102166.03;4973736;28;97213;-72
2021/09/01 08:51:24;;;;;;;;;;;;;;;21.94;52.61;102166.41;4968614;28;99021;-74
2021/09/01 08:53:50;;;;;;;;;;;;;;;21.55;53.96;102161.59;4972127;28;98893;-72
2021/09/01 08:56:19;;;;;;;;;;;;;;;22.09;52.34;102165.53;4974046;28;97105;-73
2021/09/01 08:58:45;;;;;;;;;;;;;;;21.75;52.93;102170.22;4969542;28;96987;-72
2021/09/01 09:01:26;;;;;;;;;;;;;;;22.17;51.96;102174.88;4975039;28;99290;-74
2021/09/01 09:03:55;;;;;;;;;;;;;;;21.80;53.03;102173.50;4969703;28;98898;-74
2021/09/01 09:06:21;;;;;;;;;;;;;;;20.87;55.58;102193.28;4969935;28;97145;-73
2021/09/01 09:08:50;;;;;;;;;;;;;;;21.76;53.24;102185.41;4972373;28;96869;-74
2021/09/01 09:11:17;;;;;;;;;;;;;;;22.07;52.17;102194.34;4974125;28;98986;-73
2021/09/01 09:13:44;;;;;;;;;;;;;;;22.26;51.68;102194.94;4973779;28;99162;-76
2021/09/01 09:16:12;;;;;;;;;;;;;;;22.03;51.87;102192.81;4972072;28;96812;-74
2021/09/01 09:18:40;;;;;;;;;;;;;;;21.45;53.36;102190.88;4976096;28;97169;-74
2021/09/01 09:21:15;;;;;;;;;;;;;;;21.85;52.72;102203.72;4971636;28;97853;-74
2021/09/01 09:23:41;;;;;;;;;;;;;;;20.79;55.39;102193.72;4965897;28;98842;-74
2021/09/01 09:26:25;;;;;;;;;;;;;;;21.27;54.12;102198.16;4969612;28;99127;-74
2021/09/01 09:29:08;;;;;;;;;;;;;;;20.93;54.88;102198.31;4973351;28;97794;-74
2021/09/01 09:31:34;;;;;;;;;;;;;;;20.78;55.80;102196.47;4967827;28;99256;-75
2021/09/01 09:34:04;;;;;;;;;;;;;;;20.98;55.06;102196.25;4969835;28;98855;-74
2021/09/01 09:36:30;;;;;;;;;;;;;;;21.60;53.57;102195.34;4974483;28;97357;-75
2021/09/01 09:38:57;;;;;;;;;;;;;;;21.65;52.94;102190.56;4970258;28;96886;-75
2021/09/01 09:41:27;;;;;;;;;;;;;;;21.52;53.06;102194.94;4970680;28;99343;-75
2021/09/01 09:43:55;;;;;;;;;;;;;;;21.83;52.55;102197.53;4972160;28;98853;-74
2021/09/01 09:46:21;;;;;;;;;;;;;;;21.50;53.16;102188.78;4967366;28;98082;-75
2021/09/01 09:48:48;;;;;;;;;;;;;;;21.62;52.93;102188.03;4968510;28;98108;-79
2021/09/01 09:51:15;;;;;;;;;;;;;;;22.06;52.19;102193.47;4968701;28;100551;-73
2021/09/01 09:53:43;;;;;;;;;;;;;;;22.43;51.13;102188.53;4969683;28;99407;-74
2021/09/01 09:56:10;;;;;;;;;;;;;;;21.76;52.24;102190.78;4970888;28;96903;-73
2021/09/01 09:58:39;;;;;;;;;;;;;;;22.29;51.42;102193.91;4969487;28;98580;-73
2021/09/01 10:01:06;;;;;;;;;;;;;;;22.22;51.56;102198.81;4966578;28;100686;-73
2021/09/01 10:03:33;;;;;;;;;;;;;;;22.15;51.32;102203.69;4970147;28;98839;-74
2021/09/01 10:05:59;;;;;;;;;;;;;;;21.96;52.01;102207.59;4965382;28;99139;-73
2021/09/01 10:08:26;;;;;;;;;;;;;;;22.25;51.21;102204.03;4969136;28;97268;-73
2021/09/01 10:10:53;;;;;;;;;;;;;;;22.11;51.62;102201.28;4970167;28;99029;-73
2021/09/01 10:13:20;;;;;;;;;;;;;;;22.01;51.76;102208.19;4970369;28;99106;-73
2021/09/01 10:15:49;;;;;;;;;;;;;;;22.58;50.66;102211.81;4970434;28;108586;-73
2021/09/01 10:18:17;;;;;;;;;;;;;;;22.80;49.71;102206.84;4967837;28;97405;-74
2021/09/01 10:20:45;;;;;;;;;;;;;;;22.52;50.49;102207.66;4969012;28;98915;-74
2021/09/01 10:23:11;;;;;;;;;;;;;;;22.39;50.78;102195.94;4970316;28;98875;-73
2021/09/01 10:25:41;;;;;;;;;;;;;;;22.23;51.45;102198.72;4967898;28;98590;-73
2021/09/01 10:28:28;;;;;;;;;;;;;;;22.78;50.24;102205.19;4972970;28;96998;-74
2021/09/01 10:31:09;;;;;;;;;;;;;;;22.31;51.31;102200.06;4979205;28;98470;-73
2021/09/01 10:33:37;;;;;;;;;;;;;;;22.38;51.03;102205.00;4954542;28;98836;-73
2021/09/01 10:36:35;;;;;;;;;;;;;;;22.71;50.08;102207.38;4972415;28;96853;-74
2021/09/01 10:39:14;;;;;;;;;;;;;;;21.40;53.66;102204.56;4972049;28;96914;-74
2021/09/01 10:41:40;;;;;;;;;;;;;;;22.12;52.40;102203.03;4969972;28;99129;-74
2021/09/01 10:44:07;;;;;;;;;;;;;;;22.37;51.68;102207.78;4971401;28;98836;-74
2021/09/01 10:46:58;;;;;;;;;;;;;;;22.49;51.20;102205.19;4968133;28;96886;-74
2021/09/01 10:49:27;;;;;;;;;;;;;;;22.07;52.43;102200.59;4971167;28;98063;-74
2021/09/01 10:51:54;;;;;;;;;;;;;;;22.91;49.87;102206.13;4969100;28;99152;-74
2021/09/01 10:54:30;;;;;;;;;;;;;;;22.82;50.01;102204.91;4973269;28;98882;-76
2021/09/01 10:56:57;;;;;;;;;;;;;;;23.27;48.74;102198.38;4976418;28;98918;-75
2021/09/01 10:59:24;;;;;;;;;;;;;;;23.70;47.89;102193.69;4974675;28;97155;-73
2021/09/01 11:02:15;;;;;;;;;;;;;;;23.75;47.69;102196.09;4972197;28;99308;-74
2021/09/01 11:04:47;;;;;;;;;;;;;;;23.74;47.74;102203.31;4952694;28;98812;-74
2021/09/01 11:07:22;;;;;;;;;;;;;;;23.80;47.38;102204.72;4972801;28;96945;-73
2021/09/01 11:09:52;;;;;;;;;;;;;;;23.48;48.48;102198.81;4967375;28;98423;-74
2021/09/01 11:12:18;;;;;;;;;;;;;;;23.11;49.00;102194.94;4970771;28;98657;-72
2021/09/01 11:14:48;;;;;;;;;;;;;;;23.14;49.29;102204.66;4970391;28;98892;-73
2021/09/01 11:17:15;;;;;;;;;;;;;;;23.03;49.55;102202.66;4971507;28;97303;-73
2021/09/01 11:19:42;;;;;;;;;;;;;;;23.73;47.78;102193.47;4971304;28;97148;-73
2021/09/01 11:22:10;;;;;;;;;;;;;;;23.54;47.87;102208.31;4973296;28;97563;-73
2021/09/01 11:24:47;;;;;;;;;;;;;;;23.31;48.28;102207.09;4967348;28;98775;-74
2021/09/01 11:27:15;;;;;;;;;;;;;;;22.85;49.78;102211.91;4972912;28;97166;-74
2021/09/01 11:29:42;;;;;;;;;;;;;;;23.49;48.77;102205.06;4970458;28;97662;-73
2021/09/01 11:32:09;;;;;;;;;;;;;;;23.07;49.73;102209.59;4967152;28;101236;-72
2021/09/01 11:34:35;;;;;;;;;;;;;;;23.57;47.93;102213.50;4976377;28;98982;-73
2021/09/01 11:37:02;;;;;;;;;;;;;;;24.19;46.82;102199.31;4974519;28;98063;-74
2021/09/01 11:39:30;;;;;;;;;;;;;;;23.71;47.79;102202.63;4977469;28;97241;-73
2021/09/01 11:42:00;;;;;;;;;;;;;;;24.08;46.38;102203.72;4978220;28;97969;-74
2021/09/01 11:44:26;;;;;;;;;;;;;;;24.17;46.27;102200.34;4976067;28;99416;-73
2021/09/01 11:46:53;;;;;;;;;;;;;;;23.67;47.49;102195.72;4973708;28;97574;-73
2021/09/01 11:49:20;;;;;;;;;;;;;;;23.72;47.27;102209.78;4976230;28;96873;-73
2021/09/01 11:51:47;;;;;;;;;;;;;;;24.41;45.66;102204.09;4976753;28;98928;-72
2021/09/01 11:54:14;;;;;;;;;;;;;;;24.34;45.66;102204.63;4976907;28;97661;-72
2021/09/01 11:56:42;;;;;;;;;;;;;;;24.34;45.79;102204.63;4975563;28;98559;-72
2021/09/01 11:59:09;;;;;;;;;;;;;;;24.54;45.22;102206.78;4975511;28;97181;-73
2021/09/01 12:01:36;;;;;;;;;;;;;;;24.50;45.25;102210.66;4973853;28;100702;-74
2021/09/01 12:04:03;;;;;;;;;;;;;;;24.86;44.49;102210.72;4976901;28;98403;-74
2021/09/01 12:06:36;;;;;;;;;;;;;;;24.51;45.14;102207.84;4972806;28;98226;-75
2021/09/01 12:09:03;;;;;;;;;;;;;;;24.49;45.21;102211.63;4966770;28;98026;-75
2021/09/01 12:11:30;;;;;;;;;;;;;;;24.55;45.19;102213.88;4971193;28;99944;-75
2021/09/01 12:14:01;;;;;;;;;;;;;;;24.39;45.39;102206.03;4966971;28;98873;-75
2021/09/01 12:16:27;;;;;;;;;;;;;;;24.55;45.18;102211.19;4971494;28;97643;-75
2021/09/01 12:18:55;;;;;;;;;;;;;;;24.68;45.22;102212.03;4970383;28;97118;-74
2021/09/01 12:21:23;;;;;;;;;;;;;;;25.02;44.48;102219.47;4974557;28;98007;-74
2021/09/01 12:24:08;;;;;;;;;;;;;;;24.81;44.39;102214.75;4971667;28;101475;-73
2021/09/01 12:26:45;;;;;;;;;;;;;;;24.63;44.82;102198.00;4973327;28;96787;-73
2021/09/01 12:29:25;;;;;;;;;;;;;;;24.52;45.56;102204.19;4973094;28;97363;-74
2021/09/01 12:31:51;;;;;;;;;;;;;;;24.86;44.67;102202.63;4964764;28;98973;-73
2021/09/01 12:34:17;;;;;;;;;;;;;;;24.56;45.34;102199.41;4969841;28;97246;-74
2021/09/01 12:36:44;;;;;;;;;;;;;;;24.87;44.61;102198.94;4973219;28;97336;-74
2021/09/01 12:39:15;;;;;;;;;;;;;;;25.47;43.59;102200.78;4969953;28;97466;-74